Time;durP1;ratioP1;P1;durP2;ratioP2;P2;SDS_P1;SDS_P2;PMS_P1;PMS_P2;Temp;Humidity;BMP_temperature;BMP_pressure;BME280_temperature;BME280_humidity;BME280_pressure;Samples;Min_cycle;Max_cycle;Signal;HPM_P1;HPM_P2
2022/08/10 00:02:19;;;;;;;;;8.00;6.00;;;;;24.86;36.90;101593.44;5066947;27;45453;-66
2022/08/10 00:04:45;;;;;;;;;4.50;4.50;;;;;24.82;36.18;101590.13;5066788;28;71486;-66
2022/08/10 00:07:10;;;;;;;;;6.25;5.75;;;;;24.79;36.55;101588.56;5074614;27;46140;-66
2022/08/10 00:09:36;;;;;;;;;3.75;3.00;;;;;24.76;36.40;101587.94;5075486;28;45464;-66
2022/08/10 00:12:01;;;;;;;;;5.00;5.00;;;;;24.73;36.70;101588.16;5068856;27;45666;-66
2022/08/10 00:14:26;;;;;;;;;5.25;4.00;;;;;24.69;36.91;101581.31;5074982;28;45504;-66
2022/08/10 00:16:52;;;;;;;;;4.50;4.50;;;;;24.66;36.51;101581.53;5066323;27;64140;-66
2022/08/10 00:19:17;;;;;;;;;5.25;5.00;;;;;24.62;36.87;101589.78;5064687;27;45365;-66
2022/08/10 00:21:43;;;;;;;;;4.50;4.50;;;;;24.59;37.20;101591.81;5069642;27;45537;-66
2022/08/10 00:24:09;;;;;;;;;1.00;1.00;;;;;24.55;38.85;101582.31;5073259;27;45638;-54
2022/08/10 00:26:34;;;;;;;;;3.75;3.75;;;;;24.51;37.68;101573.63;5072481;27;46040;-54
2022/08/10 00:28:59;;;;;;;;;6.25;5.00;;;;;24.47;37.31;101587.34;5070683;27;49355;-55
2022/08/10 00:31:25;;;;;;;;;5.25;4.00;;;;;24.44;37.73;101580.41;5067836;27;45601;-54
2022/08/10 00:33:50;;;;;;;;;4.75;4.00;;;;;24.40;37.37;101579.75;5085515;27;45348;-54
2022/08/10 00:36:15;;;;;;;;;5.00;5.00;;;;;24.39;37.74;101577.19;5075624;27;47096;-57
2022/08/10 00:38:41;;;;;;;;;6.50;5.25;;;;;24.34;37.43;101569.50;5068311;28;45319;-56
2022/08/10 00:41:07;;;;;;;;;3.75;3.75;;;;;24.33;37.77;101574.94;5074501;27;45232;-54
2022/08/10 00:43:32;;;;;;;;;0.00;0.00;;;;;24.30;37.41;101573.34;5067261;27;45451;-53
2022/08/10 00:45:57;;;;;;;;;4.50;3.25;;;;;24.30;38.27;101572.50;5064286;27;72400;-54
2022/08/10 00:48:23;;;;;;;;;5.25;4.00;;;;;24.29;36.97;101576.13;5070103;27;45312;-54
2022/08/10 00:50:48;;;;;;;;;4.50;4.00;;;;;24.24;37.58;101573.78;5064474;28;45401;-50
2022/08/10 00:53:14;;;;;;;;;6.00;4.75;;;;;24.21;38.03;101569.53;5060510;27;45612;-54
2022/08/10 00:55:39;;;;;;;;;4.00;4.00;;;;;24.16;38.48;101569.00;5071856;28;45599;-55
2022/08/10 00:58:07;;;;;;;;;4.00;4.00;;;;;24.14;37.61;101568.25;5075287;28;45403;-54
2022/08/10 01:00:33;;;;;;;;;7.00;6.00;;;;;24.13;37.64;101565.69;5076357;27;45545;-56
2022/08/10 01:02:58;;;;;;;;;5.00;3.75;;;;;24.10;38.04;101569.44;5062279;28;45329;-55
2022/08/10 01:05:24;;;;;;;;;4.75;3.25;;;;;24.05;37.78;101569.75;5069872;27;48404;-53
2022/08/10 01:08:02;;;;;;;;;6.00;4.50;;;;;24.05;37.53;101564.41;5072424;27;45309;-52
2022/08/10 01:10:43;;;;;;;;;4.00;4.00;;;;;24.00;39.28;101566.56;5054028;28;45323;-54
2022/08/10 01:13:15;;;;;;;;;4.25;4.25;;;;;23.99;38.04;101567.53;5065074;28;45678;-53
2022/08/10 01:15:55;;;;;;;;;6.50;4.00;;;;;23.99;37.57;101553.28;5068612;27;46267;-53
2022/08/10 01:18:42;;;;;;;;;4.00;3.50;;;;;23.97;38.06;101564.09;5067283;28;45552;-52
2022/08/10 01:21:07;;;;;;;;;7.25;4.25;;;;;23.96;37.56;101558.88;5070334;27;45390;-54
2022/08/10 01:23:45;;;;;;;;;7.00;4.75;;;;;23.94;38.47;101563.44;5072078;28;45349;-54
2022/08/10 01:26:29;;;;;;;;;6.25;4.25;;;;;23.91;38.14;101558.34;5095221;27;47166;-53
2022/08/10 01:29:32;;;;;;;;;5.00;5.00;;;;;23.86;38.88;101556.81;5065104;28;45646;-51
2022/08/10 01:32:01;;;;;;;;;4.25;4.00;;;;;23.85;38.33;101556.94;5071266;28;45234;-53
2022/08/10 01:34:32;;;;;;;;;5.00;4.00;;;;;23.83;38.79;101564.19;5069647;27;45488;-52
2022/08/10 01:37:04;;;;;;;;;4.00;4.00;;;;;23.81;38.04;101558.97;5063103;28;45469;-53
2022/08/10 01:39:34;;;;;;;;;5.25;3.75;;;;;23.79;38.53;101552.84;5061372;28;46041;-50
2022/08/10 01:42:00;;;;;;;;;6.00;4.75;;;;;23.78;38.77;101555.63;5075101;27;45338;-53
2022/08/10 01:44:31;;;;;;;;;5.00;5.00;;;;;23.77;38.55;101549.41;5066645;28;45349;-53
2022/08/10 01:49:48;;;;;;;;;4.75;4.25;;;;;23.70;38.88;101551.66;5090040;27;45495;-54
2022/08/10 01:52:16;;;;;;;;;6.00;5.50;;;;;23.68;38.80;101547.41;5073391;27;45427;-54
2022/08/10 01:54:43;;;;;;;;;6.00;4.25;;;;;23.66;38.79;101549.31;5074417;27;45246;-53
2022/08/10 01:57:10;;;;;;;;;5.75;5.75;;;;;23.65;38.96;101550.28;5073294;28;45608;-52
2022/08/10 01:59:38;;;;;;;;;5.00;5.00;;;;;23.62;38.49;101547.81;5053554;28;45433;-50
2022/08/10 02:02:12;;;;;;;;;7.50;5.00;;;;;23.59;38.50;101551.56;5077053;27;45442;-54
2022/08/10 02:04:39;;;;;;;;;6.50;5.75;;;;;23.60;39.09;101547.94;5071505;27;45541;-52
2022/08/10 02:07:07;;;;;;;;;10.50;9.00;;;;;23.58;38.58;101540.97;5075971;28;45417;-52
2022/08/10 02:09:35;;;;;;;;;6.00;4.25;;;;;23.57;39.45;101549.94;5078107;27;45460;-53
2022/08/10 02:12:04;;;;;;;;;5.75;5.25;;;;;23.53;38.60;101551.97;5075416;27;45330;-51
2022/08/10 02:14:41;;;;;;;;;7.00;5.25;;;;;23.51;39.14;101545.88;5093603;27;45407;-52
2022/08/10 02:17:09;;;;;;;;;7.75;6.75;;;;;23.50;39.30;101546.84;5060050;28;46935;-53
2022/08/10 02:19:38;;;;;;;;;4.00;4.00;;;;;23.48;39.61;101554.13;5078286;28;45272;-54
2022/08/10 02:22:05;;;;;;;;;4.50;4.50;;;;;23.46;38.88;101542.66;5078643;27;45312;-54
2022/08/10 02:24:30;;;;;;;;;6.75;5.00;;;;;23.45;38.62;101540.97;5092349;27;45609;-51
2022/08/10 02:26:56;;;;;;;;;5.00;5.00;;;;;23.41;38.75;101544.78;5076743;28;56951;-52
2022/08/10 02:29:22;;;;;;;;;3.25;3.25;;;;;23.39;39.18;101557.41;5071023;27;67424;-54
2022/08/10 02:31:48;;;;;;;;;4.75;4.75;;;;;23.34;38.64;101552.41;5069452;27;60081;-52
2022/08/10 02:34:14;;;;;;;;;5.75;4.00;;;;;23.33;39.81;101563.19;5075258;27;45612;-54
2022/08/10 02:36:44;;;;;;;;;4.25;4.25;;;;;23.31;39.59;101552.59;5071406;27;65506;-52
2022/08/10 02:39:11;;;;;;;;;7.50;5.50;;;;;23.29;39.73;101560.72;5085502;27;45871;-55
2022/08/10 02:41:46;;;;;;;;;5.50;4.50;;;;;23.26;39.25;101555.56;5077023;27;68805;-54
2022/08/10 02:44:27;;;;;;;;;5.75;5.00;;;;;23.17;39.76;101555.34;5066793;28;45230;-52
2022/08/10 02:46:58;;;;;;;;;7.25;6.00;;;;;23.15;38.95;101551.94;5086047;27;45507;-51
2022/08/10 02:49:31;;;;;;;;;4.50;4.25;;;;;23.10;39.36;101560.22;5074808;27;45408;-50
2022/08/10 02:52:01;;;;;;;;;4.25;4.25;;;;;23.08;40.35;101562.16;5065641;28;45491;-52
2022/08/10 02:54:30;;;;;;;;;6.00;5.50;;;;;23.07;39.35;101560.44;5070861;28;45595;-54
2022/08/10 02:57:03;;;;;;;;;4.50;4.00;;;;;23.02;40.96;101557.16;5061980;28;45395;-51
2022/08/10 02:59:33;;;;;;;;;7.00;5.75;;;;;23.00;39.78;101553.75;5072385;27;45284;-52
2022/08/10 03:02:01;;;;;;;;;7.00;5.00;;;;;23.02;40.03;101566.06;5073873;28;45604;-54
2022/08/10 03:04:34;;;;;;;;;5.25;4.00;;;;;22.99;40.05;101562.75;5069892;28;45518;-54
2022/08/10 03:07:04;;;;;;;;;5.00;5.00;;;;;22.96;39.69;101565.59;5066635;28;46223;-55
2022/08/10 03:09:31;;;;;;;;;4.75;4.50;;;;;22.89;40.37;101571.34;5079241;27;45520;-53
2022/08/10 03:11:57;;;;;;;;;3.25;3.00;;;;;22.86;40.45;101568.88;5071555;28;45386;-54
2022/08/10 03:14:24;;;;;;;;;6.00;6.00;;;;;22.87;39.52;101559.06;5078403;27;45235;-53
2022/08/10 03:16:50;;;;;;;;;4.50;4.50;;;;;22.85;40.10;101560.97;5074881;27;46442;-51
2022/08/10 03:19:19;;;;;;;;;4.25;4.25;;;;;22.84;40.93;101564.59;5071368;28;45368;-52
2022/08/10 03:21:45;;;;;;;;;7.50;4.00;;;;;22.81;39.94;101562.16;5074201;27;45450;-51
2022/08/10 03:24:11;;;;;;;;;7.00;5.00;;;;;22.81;40.12;101559.47;5074254;27;45320;-54
2022/08/10 03:26:37;;;;;;;;;7.50;4.00;;;;;22.79;40.54;101556.03;5074596;27;46501;-53
2022/08/10 03:29:03;;;;;;;;;3.50;3.25;;;;;22.77;40.46;101558.81;5074178;27;45560;-54
2022/08/10 03:31:30;;;;;;;;;4.00;3.00;;;;;22.73;41.21;101549.28;5066248;28;45405;-52
2022/08/10 03:33:56;;;;;;;;;6.50;5.00;;;;;22.73;40.90;101557.28;5064418;27;45500;-55
2022/08/10 03:36:21;;;;;;;;;4.50;4.50;;;;;22.67;40.75;101547.88;5072818;28;54040;-55
2022/08/10 03:38:50;;;;;;;;;3.25;2.50;;;;;22.65;40.16;101551.63;5057376;28;68157;-54
2022/08/10 03:41:18;;;;;;;;;5.00;5.00;;;;;22.57;40.57;101557.44;5072373;28;45414;-53
2022/08/10 03:43:46;;;;;;;;;2.50;2.50;;;;;22.53;41.01;101562.09;5064437;27;45497;-52
2022/08/10 03:46:12;;;;;;;;;4.75;4.75;;;;;22.53;40.65;101562.09;5073679;27;46040;-54
2022/08/10 03:48:39;;;;;;;;;4.00;4.00;;;;;22.52;40.32;101568.41;5069739;27;45731;-53
2022/08/10 03:51:05;;;;;;;;;7.00;5.00;;;;;22.47;41.41;101567.84;5070685;27;45476;-52
2022/08/10 03:53:32;;;;;;;;;6.00;4.00;;;;;22.44;40.67;101561.84;5065470;28;45305;-54
2022/08/10 03:55:58;;;;;;;;;6.25;4.00;;;;;22.40;41.37;101563.88;5064632;27;46188;-54
2022/08/10 03:58:23;;;;;;;;;4.00;4.00;;;;;22.36;40.92;101559.66;5067707;27;72944;-54
2022/08/10 04:00:50;;;;;;;;;4.75;4.00;;;;;22.33;41.00;101555.38;5069826;27;52986;-54
2022/08/10 04:03:16;;;;;;;;;5.25;5.25;;;;;22.30;41.59;101565.41;5064842;28;45316;-55
2022/08/10 04:05:41;;;;;;;;;5.50;5.50;;;;;22.24;42.23;101561.28;5089482;27;45460;-53
2022/08/10 04:08:07;;;;;;;;;5.75;4.25;;;;;22.22;41.23;101560.50;5066790;28;51512;-53
2022/08/10 04:10:32;;;;;;;;;4.75;4.25;;;;;22.18;41.75;101562.50;5073507;28;63176;-54
2022/08/10 04:12:57;;;;;;;;;4.50;4.50;;;;;22.17;41.64;101568.81;5064506;28;61022;-52
2022/08/10 04:15:23;;;;;;;;;4.00;2.75;;;;;22.16;41.70;101561.75;5070954;28;62434;-52
2022/08/10 04:17:49;;;;;;;;;6.50;6.00;;;;;22.13;41.68;101564.63;5072682;27;45544;-54
2022/08/10 04:20:44;;;;;;;;;4.50;4.00;;;;;22.11;41.73;101565.66;5067409;27;45597;-54
2022/08/10 04:23:18;;;;;;;;;6.50;4.75;;;;;22.11;41.46;101574.50;5069826;28;45374;-52
2022/08/10 04:25:44;;;;;;;;;6.00;5.25;;;;;22.11;41.76;101569.16;5065568;28;45863;-54
2022/08/10 04:28:09;;;;;;;;;6.75;5.75;;;;;22.10;41.90;101558.63;5075061;28;46541;-53
2022/08/10 04:30:35;;;;;;;;;8.25;5.75;;;;;22.09;41.44;101571.06;5071857;28;45442;-53
2022/08/10 04:33:02;;;;;;;;;7.00;6.00;;;;;22.09;42.11;101564.91;5062305;27;47004;-54
2022/08/10 04:35:28;;;;;;;;;5.50;5.50;;;;;22.09;41.90;101559.56;5066565;28;45309;-54
2022/08/10 04:37:56;;;;;;;;;8.25;5.00;;;;;22.05;42.43;101560.72;5072752;28;45373;-51
2022/08/10 04:40:21;;;;;;;;;6.00;6.00;;;;;21.98;41.64;101569.09;5076813;27;45377;-50
2022/08/10 04:42:46;;;;;;;;;4.75;4.75;;;;;21.95;42.51;101571.94;5077191;27;47077;-55
2022/08/10 04:45:14;;;;;;;;;6.25;5.75;;;;;21.95;41.63;101571.94;5077202;27;56207;-54
2022/08/10 04:47:39;;;;;;;;;8.25;5.00;;;;;21.93;42.46;101578.31;5076368;27;45969;-53
2022/08/10 04:50:05;;;;;;;;;7.00;5.75;;;;;21.91;42.14;101586.41;5070198;27;68981;-54
2022/08/10 04:52:31;;;;;;;;;5.50;3.50;;;;;21.90;43.13;101581.16;5068014;28;45780;-55
2022/08/10 04:54:56;;;;;;;;;5.75;5.00;;;;;21.87;42.24;101576.88;5060771;28;46602;-54
2022/08/10 04:57:22;;;;;;;;;5.00;3.00;;;;;21.88;42.34;101586.59;5075311;27;45266;-55
2022/08/10 04:59:47;;;;;;;;;4.50;4.50;;;;;21.84;42.88;101581.56;5060059;28;57484;-54
2022/08/10 05:02:13;;;;;;;;;4.75;4.00;;;;;21.83;42.35;101590.47;5071541;27;70678;-54
2022/08/10 05:04:38;;;;;;;;;5.50;3.00;;;;;21.78;42.87;101590.78;5066907;28;45599;-53
2022/08/10 05:07:12;;;;;;;;;4.50;4.25;;;;;21.79;41.93;101590.66;5075953;27;62399;-53
2022/08/10 05:09:38;;;;;;;;;6.00;4.75;;;;;21.83;42.73;101595.81;5078718;27;45342;-50
2022/08/10 05:12:04;;;;;;;;;5.00;3.50;;;;;21.83;42.40;101596.66;5068423;27;45421;-54
2022/08/10 05:14:29;;;;;;;;;4.75;4.75;;;;;21.86;42.83;101590.31;5065605;27;46215;-53
2022/08/10 05:16:55;;;;;;;;;7.50;5.00;;;;;21.91;43.09;101591.72;5070954;27;45276;-54
2022/08/10 05:19:20;;;;;;;;;7.00;6.00;;;;;21.91;42.80;101590.88;5070135;28;64574;-52
2022/08/10 05:21:45;;;;;;;;;6.75;6.75;;;;;21.93;42.24;101588.97;5064547;28;45537;-52
2022/08/10 05:24:11;;;;;;;;;4.25;4.00;;;;;21.97;43.35;101588.72;5065423;28;68001;-56
2022/08/10 05:26:36;;;;;;;;;7.00;6.25;;;;;22.00;43.01;101583.16;5068557;27;49016;-53
2022/08/10 05:29:01;;;;;;;;;5.00;5.00;;;;;22.03;42.68;101599.91;5067195;27;54691;-54
2022/08/10 05:31:27;;;;;;;;;4.50;4.50;;;;;22.04;42.36;101605.16;5065950;28;45380;-53
2022/08/10 05:33:52;;;;;;;;;6.00;6.00;;;;;21.99;42.47;101597.47;5068919;27;45402;-54
2022/08/10 05:36:18;;;;;;;;;5.00;5.00;;;;;21.98;42.58;101597.56;5062112;28;70664;-54
2022/08/10 05:38:44;;;;;;;;;7.75;6.00;;;;;21.97;42.38;101596.72;5065240;27;45572;-51
2022/08/10 05:41:09;;;;;;;;;7.25;6.00;;;;;21.92;43.33;101603.25;5061730;28;66506;-52
2022/08/10 05:43:35;;;;;;;;;8.50;5.00;;;;;21.88;42.71;101601.72;5070370;27;47359;-51
2022/08/10 05:46:00;;;;;;;;;4.00;3.75;;;;;21.84;42.34;101600.22;5082496;27;59551;-53
2022/08/10 05:48:26;;;;;;;;;5.25;5.00;;;;;21.78;43.11;101596.97;5075761;27;58667;-52
2022/08/10 05:50:51;;;;;;;;;4.50;3.00;;;;;21.78;44.64;101602.28;5070470;28;68895;-53
2022/08/10 05:53:17;;;;;;;;;6.75;4.50;;;;;21.84;43.52;101603.72;5071228;28;46011;-52
2022/08/10 05:55:42;;;;;;;;;6.00;6.00;;;;;21.88;43.16;101597.25;5067753;28;45225;-48
2022/08/10 05:58:08;;;;;;;;;7.00;5.50;;;;;21.95;43.04;101597.72;5050122;28;45449;-50
2022/08/10 06:00:35;;;;;;;;;6.25;5.50;;;;;22.00;42.62;101599.16;5061045;28;45468;-52
2022/08/10 06:03:04;;;;;;;;;8.00;6.50;;;;;22.00;43.14;101607.16;5071956;27;47171;-51
2022/08/10 06:05:31;;;;;;;;;7.75;6.00;;;;;21.96;43.10;101602.13;5064977;28;45732;-53
2022/08/10 06:07:59;;;;;;;;;6.50;6.00;;;;;21.90;43.19;101605.16;5058810;28;45493;-54
2022/08/10 06:10:27;;;;;;;;;4.75;4.75;;;;;21.89;42.70;101614.97;5075723;27;45348;-54
2022/08/10 06:15:38;;;;;;;;;7.00;6.50;;;;;21.91;43.44;101605.06;5075561;28;45359;-52
2022/08/10 06:18:04;;;;;;;;;10.00;7.75;;;;;21.91;42.71;101607.72;5071567;28;45304;-53
2022/08/10 06:20:31;;;;;;;;;6.00;6.00;;;;;21.90;43.58;101611.34;5063684;28;45324;-54
2022/08/10 06:23:01;;;;;;;;;8.25;8.00;;;;;21.94;43.04;101609.34;5066503;28;45569;-51
2022/08/10 06:25:29;;;;;;;;;7.00;7.00;;;;;21.95;43.54;101614.56;5077468;27;45467;-53
2022/08/10 06:27:55;;;;;;;;;10.50;7.00;;;;;21.97;43.25;101615.34;5065114;27;45495;-54
2022/08/10 06:30:21;;;;;;;;;9.00;5.50;;;;;22.02;43.14;101620.38;5072302;28;45322;-50
2022/08/10 06:32:48;;;;;;;;;12.00;6.75;;;;;22.06;42.72;101616.59;5072647;27;45725;-52
2022/08/10 06:35:15;;;;;;;;;10.75;7.00;;;;;22.06;42.96;101619.28;5066299;28;45738;-53
2022/08/10 06:37:42;;;;;;;;;9.25;7.00;;;;;22.07;43.29;101612.97;5085206;27;45535;-50
2022/08/10 06:40:08;;;;;;;;;6.00;6.00;;;;;22.10;43.71;101617.28;5076219;28;72265;-53
2022/08/10 06:42:37;;;;;;;;;6.50;6.50;;;;;22.13;42.41;101615.28;5066591;27;45364;-52
2022/08/10 06:45:13;;;;;;;;;9.75;7.00;;;;;22.16;42.67;101619.53;5066864;28;45446;-52
2022/08/10 06:47:45;;;;;;;;;9.75;8.50;;;;;22.17;43.08;101614.13;5088814;27;45330;-52
2022/08/10 06:50:21;;;;;;;;;9.00;8.50;;;;;22.19;43.37;101614.03;5072602;27;45503;-50
2022/08/10 06:52:49;;;;;;;;;7.00;5.00;;;;;22.24;43.11;101627.06;5067497;28;46146;-49
2022/08/10 06:55:15;;;;;;;;;20.00;11.25;;;;;22.26;43.51;101618.03;5071350;28;45511;-52
2022/08/10 06:57:41;;;;;;;;;9.50;8.00;;;;;22.32;42.65;101623.00;5070411;27;45470;-52
2022/08/10 07:00:08;;;;;;;;;7.25;7.25;;;;;22.36;43.11;101621.00;5074995;28;45594;-51
2022/08/10 07:02:42;;;;;;;;;8.25;7.50;;;;;22.44;42.11;101617.88;5072101;27;45620;-52
2022/08/10 07:05:11;;;;;;;;;10.75;6.00;;;;;22.46;42.41;101624.81;5072046;27;45969;-51
2022/08/10 07:07:39;;;;;;;;;5.75;5.75;;;;;22.49;42.68;101623.78;5075099;28;45309;-52
2022/08/10 07:10:06;;;;;;;;;8.00;6.00;;;;;22.50;41.95;101618.31;5071652;28;52153;-53
2022/08/10 07:12:33;;;;;;;;;8.25;7.00;;;;;22.51;42.20;101617.38;5066395;28;45679;-53
2022/08/10 07:14:59;;;;;;;;;7.00;6.50;;;;;22.52;41.90;101619.09;5071951;28;45716;-54
2022/08/10 07:17:27;;;;;;;;;10.00;8.50;;;;;22.57;42.12;101616.13;5079638;27;67461;-54
2022/08/10 07:19:57;;;;;;;;;12.75;8.75;;;;;22.59;42.18;101621.38;5071917;27;45244;-53
2022/08/10 07:22:26;;;;;;;;;7.25;7.00;;;;;22.64;42.05;101619.25;5070932;27;45397;-54
2022/08/10 07:24:53;;;;;;;;;11.00;8.00;;;;;22.65;42.09;101613.84;5076508;27;45307;-64
2022/08/10 07:27:19;;;;;;;;;13.75;11.00;;;;;22.69;42.21;101615.34;5070695;28;45700;-64
2022/08/10 07:29:46;;;;;;;;;11.25;8.75;;;;;22.75;42.18;101622.09;5055919;28;45466;-63
2022/08/10 07:32:12;;;;;;;;;10.75;7.25;;;;;22.80;42.30;101619.97;5073619;27;65423;-62
2022/08/10 07:34:38;;;;;;;;;12.25;11.00;;;;;22.84;41.96;101618.84;5072392;27;72185;-62
2022/08/10 07:37:06;;;;;;;;;14.50;13.00;;;;;22.91;42.12;101612.16;5070347;27;45432;-64
2022/08/10 07:39:36;;;;;;;;;9.75;8.75;;;;;22.98;42.10;101620.59;5063839;27;45235;-64
2022/08/10 07:42:02;;;;;;;;;12.25;10.00;;;;;23.03;41.68;101609.63;5073375;27;46296;-64
2022/08/10 07:44:28;;;;;;;;;13.00;10.50;;;;;23.09;41.63;101617.28;5077302;27;45473;-68
2022/08/10 07:46:56;;;;;;;;;8.50;8.00;;;;;23.15;41.48;101618.69;5068904;28;45371;-69
2022/08/10 07:49:24;;;;;;;;;8.75;6.00;;;;;23.21;41.74;101619.09;5073875;27;45518;-69
2022/08/10 07:51:52;;;;;;;;;12.75;8.75;;;;;23.25;41.33;101609.97;5067868;28;45497;-68
2022/08/10 07:54:19;;;;;;;;;11.50;9.75;;;;;23.35;40.95;101622.69;5076935;28;45363;-67
2022/08/10 07:56:48;;;;;;;;;7.00;7.00;;;;;23.43;40.99;101623.03;5073269;27;45526;-62
2022/08/10 07:59:16;;;;;;;;;9.00;7.75;;;;;23.49;40.56;101625.28;5063482;27;45564;-63
2022/08/10 08:01:49;;;;;;;;;8.50;8.25;;;;;23.55;40.64;101627.56;5066319;28;46647;-63
2022/08/10 08:04:15;;;;;;;;;9.25;7.75;;;;;23.61;40.43;101624.44;5070041;27;45830;-63
2022/08/10 08:06:43;;;;;;;;;9.00;7.75;;;;;23.64;40.26;101616.25;5085816;27;45382;-63
2022/08/10 08:09:09;;;;;;;;;8.25;6.75;;;;;23.76;40.24;101624.38;5069630;28;45366;-62
2022/08/10 08:11:36;;;;;;;;;7.00;7.00;;;;;23.83;40.24;101623.88;5079348;27;45323;-63
2022/08/10 08:14:03;;;;;;;;;7.00;7.00;;;;;23.89;40.09;101627.94;5069009;28;45666;-64
2022/08/10 08:16:29;;;;;;;;;9.75;6.50;;;;;23.96;40.19;101623.03;5075455;27;45671;-62
2022/08/10 08:18:55;;;;;;;;;9.00;7.00;;;;;24.01;39.59;101620.88;5060308;27;67605;-62
2022/08/10 08:21:21;;;;;;;;;6.25;6.25;;;;;24.10;39.70;101612.22;5076046;28;46633;-63
2022/08/10 08:23:48;;;;;;;;;11.00;8.00;;;;;24.17;39.50;101621.53;5071843;28;46207;-63
2022/08/10 08:26:15;;;;;;;;;10.00;6.75;;;;;24.22;39.67;101614.03;5069302;27;45341;-63
2022/08/10 08:28:44;;;;;;;;;5.75;5.75;;;;;24.31;39.45;101615.22;5077150;27;45413;-63
2022/08/10 08:31:11;;;;;;;;;10.00;7.75;;;;;24.39;38.98;101609.31;5062973;28;46446;-64
2022/08/10 08:33:36;;;;;;;;;8.50;7.50;;;;;24.48;38.83;101610.47;5069986;28;45478;-63
2022/08/10 08:36:02;;;;;;;;;9.25;8.00;;;;;24.54;38.85;101608.25;5073866;27;57246;-62
2022/08/10 08:38:28;;;;;;;;;9.00;6.50;;;;;24.61;38.60;101611.31;5076172;28;45403;-63
2022/08/10 08:41:02;;;;;;;;;8.75;7.50;;;;;24.69;38.41;101603.56;5060851;27;58191;-63
2022/08/10 08:44:05;;;;;;;;;7.75;7.00;;;;;24.77;38.50;101606.56;5070868;28;45828;-63
2022/08/10 08:46:58;;;;;;;;;7.25;6.00;;;;;24.85;38.13;101606.00;5065325;27;45335;-63
2022/08/10 08:49:25;;;;;;;;;8.50;8.50;;;;;24.93;37.89;101603.59;5069665;27;45303;-62
2022/08/10 08:52:24;;;;;;;;;8.50;6.75;;;;;25.02;37.73;101610.94;5061170;28;46110;-63
2022/08/10 08:55:05;;;;;;;;;9.50;9.00;;;;;25.13;37.08;101601.28;5061359;28;45792;-63
2022/08/10 08:57:39;;;;;;;;;10.75;7.00;;;;;25.20;37.02;101600.69;5063916;27;45592;-63
2022/08/10 09:00:12;;;;;;;;;7.50;7.50;;;;;25.28;36.67;101596.59;5067215;27;45621;-64
2022/08/10 09:02:56;;;;;;;;;11.50;9.50;;;;;25.39;36.64;101597.50;5067302;28;46089;-63
2022/08/10 09:05:27;;;;;;;;;11.50;11.00;;;;;25.48;36.49;101595.94;5069491;28;45287;-63
2022/08/10 09:08:10;;;;;;;;;7.75;7.00;;;;;25.58;36.38;101599.59;5065921;27;45730;-63
2022/08/10 09:10:41;;;;;;;;;9.00;8.00;;;;;25.69;35.85;101590.75;5067865;27;45531;-63
2022/08/10 09:13:13;;;;;;;;;14.50;7.25;;;;;25.80;35.78;101592.59;5067834;27;45742;-63
2022/08/10 09:16:19;;;;;;;;;12.50;10.50;;;;;25.95;35.76;101593.25;5077436;27;45312;-63
2022/08/10 09:19:00;;;;;;;;;8.75;8.00;;;;;26.12;35.38;101584.72;5067858;28;45524;-63
2022/08/10 09:21:25;;;;;;;;;11.25;9.00;;;;;26.36;34.93;101581.03;5061205;27;45473;-64
2022/08/10 09:23:58;;;;;;;;;8.75;6.50;;;;;26.68;35.21;101581.16;5064875;28;45405;-64
2022/08/10 09:26:39;;;;;;;;;12.50;10.00;;;;;27.17;34.49;101581.59;5054030;28;45760;-64
2022/08/10 09:29:04;;;;;;;;;11.50;9.00;;;;;27.75;33.90;101572.25;5075335;27;45202;-64
2022/08/10 09:31:42;;;;;;;;;7.00;7.00;;;;;28.48;31.81;101575.66;5067820;28;63753;-62
2022/08/10 09:34:30;;;;;;;;;5.75;5.75;;;;;29.30;31.62;101571.81;5054987;28;45642;-63
2022/08/10 09:37:11;;;;;;;;;6.00;4.50;;;;;30.13;30.85;101573.88;5075236;27;45379;-63
2022/08/10 09:40:02;;;;;;;;;8.00;7.75;;;;;31.08;29.46;101566.34;5072160;27;45759;-63
2022/08/10 09:42:33;;;;;;;;;7.25;5.25;;;;;32.01;28.57;101567.66;5064715;27;45375;-63
2022/08/10 09:45:02;;;;;;;;;6.50;5.75;;;;;32.85;25.67;101566.78;5076298;28;47478;-63
2022/08/10 09:47:42;;;;;;;;;9.50;8.75;;;;;33.64;25.12;101566.22;5064647;28;45517;-63
2022/08/10 09:50:20;;;;;;;;;7.00;7.00;;;;;34.37;24.15;101559.72;5063845;28;45549;-62
2022/08/10 09:53:09;;;;;;;;;10.75;6.75;;;;;35.21;23.13;101567.16;5067273;28;45525;-62
2022/08/10 09:55:42;;;;;;;;;16.25;15.50;;;;;36.03;23.76;101560.81;5068227;27;46478;-62
2022/08/10 09:58:46;;;;;;;;;8.75;7.50;;;;;36.96;23.29;101563.81;5058645;28;45417;-62
2022/08/10 10:01:24;;;;;;;;;9.00;8.25;;;;;37.91;20.49;101561.56;5065414;28;45531;-62
2022/08/10 10:04:21;;;;;;;;;6.00;6.00;;;;;38.72;20.19;101551.75;5071842;28;45411;-65
2022/08/10 10:06:54;;;;;;;;;6.75;5.75;;;;;39.60;20.45;101543.34;5063616;27;46453;-63
2022/08/10 10:09:32;;;;;;;;;7.25;7.00;;;;;40.26;17.67;101535.91;5065348;27;45703;-64
2022/08/10 10:12:10;;;;;;;;;6.75;6.00;;;;;40.91;18.92;101545.88;5065185;27;45547;-63
2022/08/10 10:18:01;;;;;;;;;6.00;5.50;;;;;42.37;15.79;101535.16;5057761;28;45662;-65
2022/08/10 10:20:48;;;;;;;;;7.75;6.75;;;;;42.76;17.00;101535.63;5060465;28;45816;-65
2022/08/10 10:23:37;;;;;;;;;5.50;5.50;;;;;43.11;16.80;101536.75;5068288;27;45370;-64
2022/08/10 10:26:42;;;;;;;;;4.75;4.75;;;;;43.53;15.59;101534.72;5058517;28;45576;-64
2022/08/10 10:29:52;;;;;;;;;6.75;6.25;;;;;44.04;15.32;101520.28;5081864;27;46311;-65
2022/08/10 10:32:28;;;;;;;;;9.00;8.50;;;;;44.51;13.00;101518.16;5081616;27;45465;-65
2022/08/10 10:35:12;;;;;;;;;6.00;6.00;;;;;44.52;13.92;101513.47;5080975;27;45405;-65
2022/08/10 10:37:37;;;;;;;;;6.50;6.50;;;;;44.54;14.52;101514.09;5081744;27;45356;-66
2022/08/10 10:40:04;;;;;;;;;7.50;7.25;;;;;44.84;15.31;101510.16;5081080;27;69030;-65
2022/08/10 10:42:51;;;;;;;;;8.00;6.00;;;;;45.06;14.44;101510.22;5079778;28;45205;-65
2022/08/10 10:45:19;;;;;;;;;6.00;6.00;;;;;45.36;15.18;101512.59;5068244;27;45154;-65
2022/08/10 10:48:02;;;;;;;;;7.00;7.00;;;;;45.62;13.03;101512.94;5080487;27;45445;-65
2022/08/10 10:50:40;;;;;;;;;6.50;6.50;;;;;45.81;14.19;101507.91;5072559;27;45388;-65
2022/08/10 10:53:14;;;;;;;;;5.25;4.75;;;;;45.93;12.43;101503.06;5096589;27;45793;-66
2022/08/10 10:56:02;;;;;;;;;5.25;5.25;;;;;46.00;12.31;101503.69;5069978;27;45317;-63
2022/08/10 10:59:06;;;;;;;;;4.50;4.50;;;;;46.27;12.18;101499.28;5079613;28;45804;-63
2022/08/10 11:01:47;;;;;;;;;7.75;5.00;;;;;46.57;12.47;101494.03;5071054;27;45309;-63
2022/08/10 11:04:31;;;;;;;;;6.00;6.00;;;;;46.77;11.58;101493.34;5080449;27;45713;-66
2022/08/10 11:07:13;;;;;;;;;3.50;3.00;;;;;46.48;12.12;101487.31;5080360;27;45443;-66
2022/08/10 11:09:51;;;;;;;;;7.75;6.75;;;;;45.61;12.52;101487.19;5079916;27;45326;-66
2022/08/10 11:12:24;;;;;;;;;8.00;6.75;;;;;44.71;11.83;101483.69;5081597;28;47956;-66
2022/08/10 11:15:07;;;;;;;;;7.00;7.00;;;;;43.74;12.98;101478.09;5081215;27;45278;-66
2022/08/10 11:17:39;;;;;;;;;5.00;5.00;;;;;42.86;12.72;101475.28;5079372;28;45308;-67
2022/08/10 11:20:15;;;;;;;;;5.25;5.00;;;;;42.01;13.64;101476.41;5096384;27;45333;-66
2022/08/10 11:22:52;;;;;;;;;5.75;5.75;;;;;41.44;13.89;101473.13;5078284;28;46482;-66
2022/08/10 11:25:23;;;;;;;;;5.25;5.25;;;;;41.20;14.38;101470.16;5079876;27;45863;-67
2022/08/10 11:28:03;;;;;;;;;7.00;6.25;;;;;41.06;14.27;101466.72;5076553;27;45414;-67
2022/08/10 11:30:35;;;;;;;;;6.50;5.00;;;;;40.78;13.34;101462.53;5087180;27;45473;-67
2022/08/10 11:33:14;;;;;;;;;6.25;5.00;;;;;40.53;14.78;101461.69;5077166;27;46088;-66
2022/08/10 11:35:45;;;;;;;;;7.00;6.00;;;;;40.37;14.78;101463.06;5072826;28;45375;-66
2022/08/10 11:38:32;;;;;;;;;6.50;5.00;;;;;40.25;14.06;101454.72;5074379;27;45475;-66
2022/08/10 11:41:16;;;;;;;;;9.25;8.00;;;;;40.28;14.09;101454.25;5077591;27;45661;-66
2022/08/10 11:43:45;;;;;;;;;7.00;6.00;;;;;40.36;14.43;101453.19;5089341;27;45436;-66
2022/08/10 11:46:17;;;;;;;;;6.50;4.75;;;;;40.53;14.12;101448.81;5074469;28;45382;-66
2022/08/10 11:48:48;;;;;;;;;6.25;6.25;;;;;40.78;13.95;101445.22;5075048;27;45389;-66
2022/08/10 11:51:34;;;;;;;;;6.25;6.25;;;;;41.02;13.45;101456.44;5078497;27;45391;-66